createdAt,value
2022-12-19T00:01:36.791Z,-8.36
2022-12-19T00:04:08.207Z,-8.34
2022-12-19T00:06:43.428Z,-8.37
2022-12-19T00:09:12.179Z,-8.41
2022-12-19T00:11:40.166Z,-8.35
2022-12-19T00:14:08.919Z,-8.34
2022-12-19T00:16:35.985Z,-8.35
2022-12-19T00:19:03.279Z,-8.32
2022-12-19T00:24:03.576Z,-8.34
2022-12-19T00:26:36.705Z,-8.34
2022-12-19T00:29:11.155Z,-8.28
2022-12-19T00:31:41.107Z,-8.31
2022-12-19T00:34:09.790Z,-8.25
2022-12-19T00:36:36.749Z,-8.22
2022-12-19T00:39:08.287Z,-8.20
2022-12-19T00:41:37.677Z,-8.19
2022-12-19T00:44:12.152Z,-8.29
2022-12-19T00:46:42.487Z,-8.29
2022-12-19T00:49:12.876Z,-8.31
2022-12-19T00:51:39.897Z,-8.34
2022-12-19T00:54:09.995Z,-8.31
2022-12-19T00:56:38.321Z,-8.24
2022-12-19T00:59:08.967Z,-8.21
2022-12-19T01:01:38.412Z,-8.19
2022-12-19T01:06:54.446Z,-8.19
2022-12-19T01:09:28.116Z,-8.15
2022-12-19T01:12:13.738Z,-8.12
2022-12-19T01:14:40.649Z,-8.17
2022-12-19T01:17:07.900Z,-8.25
2022-12-19T01:19:38.963Z,-8.20
2022-12-19T01:22:09.359Z,-8.22
2022-12-19T01:24:36.624Z,-8.18
2022-12-19T01:27:03.735Z,-8.13
2022-12-19T01:29:32.929Z,-8.17
2022-12-19T01:32:01.579Z,-8.16
2022-12-19T01:34:31.979Z,-8.19
2022-12-19T01:36:59.010Z,-8.22
2022-12-19T01:39:25.913Z,-8.20
2022-12-19T01:41:56.138Z,-8.24
2022-12-19T01:44:24.864Z,-8.23
2022-12-19T01:47:00.106Z,-8.25
2022-12-19T01:49:31.407Z,-8.25
2022-12-19T01:52:01.680Z,-8.29
2022-12-19T01:54:34.436Z,-8.27
2022-12-19T01:57:03.341Z,-8.31
2022-12-19T01:59:37.256Z,-8.35
2022-12-19T02:02:33.554Z,-8.37
2022-12-19T02:05:04.338Z,-8.37
2022-12-19T02:07:32.055Z,-8.38
2022-12-19T02:09:59.379Z,-8.41
2022-12-19T02:12:37.136Z,-8.41
2022-12-19T02:15:06.707Z,-8.39
2022-12-19T02:17:58.940Z,-8.39
2022-12-19T02:20:31.953Z,-8.40
2022-12-19T02:23:36.692Z,-8.36
2022-12-19T02:26:15.865Z,-8.41
2022-12-19T02:29:04.363Z,-8.39
2022-12-19T02:31:37.127Z,-8.44
2022-12-19T02:34:25.724Z,-8.43
2022-12-19T02:37:03.775Z,-8.45
2022-12-19T02:39:33.783Z,-8.42
2022-12-19T02:42:03.817Z,-8.39
2022-12-19T02:44:41.952Z,-8.38
2022-12-19T02:47:09.779Z,-8.39
2022-12-19T02:49:38.874Z,-8.40
2022-12-19T02:52:33.176Z,-8.46
2022-12-19T02:55:10.627Z,-8.37
2022-12-19T02:57:56.535Z,-8.37
2022-12-19T03:00:26.154Z,-8.41
2022-12-19T03:03:16.106Z,-8.45
2022-12-19T03:06:08.308Z,-8.50
2022-12-19T03:09:01.338Z,-8.49
2022-12-19T03:11:33.172Z,-8.52
2022-12-19T03:14:07.485Z,-8.54
2022-12-19T03:16:36.737Z,-8.56
2022-12-19T03:19:05.608Z,-8.56
2022-12-19T03:21:36.532Z,-8.59
2022-12-19T03:24:05.038Z,-8.61
2022-12-19T03:26:36.748Z,-8.65
2022-12-19T03:29:17.535Z,-8.69
2022-12-19T03:31:46.608Z,-8.69
2022-12-19T03:34:30.530Z,-8.68
2022-12-19T03:37:01.619Z,-8.65
2022-12-19T03:39:30.203Z,-8.63
2022-12-19T03:42:17.725Z,-8.65
2022-12-19T03:44:45.011Z,-8.54
2022-12-19T03:47:23.406Z,-8.53
2022-12-19T03:49:51.106Z,-8.52
2022-12-19T03:52:54.380Z,-8.50
2022-12-19T03:55:27.009Z,-8.44
2022-12-19T03:57:58.755Z,-8.52
2022-12-19T04:00:26.385Z,-8.54
2022-12-19T04:02:55.950Z,-8.54
2022-12-19T04:05:25.519Z,-8.48
2022-12-19T04:07:55.705Z,-8.47
2022-12-19T04:10:25.316Z,-8.45
2022-12-19T04:13:09.267Z,-8.43
2022-12-19T04:15:45.899Z,-8.29
2022-12-19T04:18:14.120Z,-8.26
2022-12-19T04:20:46.151Z,-8.30
2022-12-19T04:23:27.482Z,-8.32
2022-12-19T04:26:01.130Z,-8.35
2022-12-19T04:28:35.395Z,-8.32
2022-12-19T04:31:03.176Z,-8.36
2022-12-19T04:33:30.339Z,-8.34
2022-12-19T04:35:57.267Z,-8.41
2022-12-19T04:38:24.428Z,-8.37
2022-12-19T04:40:51.325Z,-8.35
2022-12-19T04:43:18.353Z,-8.33
2022-12-19T04:45:45.339Z,-8.30
2022-12-19T04:48:12.348Z,-8.30
2022-12-19T04:50:39.320Z,-8.34
2022-12-19T04:53:07.124Z,-8.36
2022-12-19T04:55:34.036Z,-8.42
2022-12-19T04:58:00.968Z,-8.45
2022-12-19T05:00:28.032Z,-8.48
2022-12-19T05:02:55.211Z,-8.45
2022-12-19T05:05:22.369Z,-8.50
2022-12-19T05:07:49.497Z,-8.55
2022-12-19T05:10:16.871Z,-8.55
2022-12-19T05:12:43.920Z,-8.55
2022-12-19T05:15:12.034Z,-8.53
2022-12-19T05:17:39.042Z,-8.52
2022-12-19T05:20:07.122Z,-8.45
2022-12-19T05:22:34.176Z,-8.42
2022-12-19T05:25:01.284Z,-8.43
2022-12-19T05:27:28.268Z,-8.46
2022-12-19T05:29:55.195Z,-8.51
2022-12-19T05:32:22.318Z,-8.48
2022-12-19T05:34:49.255Z,-8.43
2022-12-19T05:37:16.250Z,-8.41
2022-12-19T05:39:43.260Z,-8.40
2022-12-19T05:42:12.480Z,-8.35
2022-12-19T05:44:40.008Z,-8.34
2022-12-19T05:47:07.032Z,-8.34
2022-12-19T05:49:33.991Z,-8.33
2022-12-19T05:52:00.931Z,-8.31
2022-12-19T05:54:28.411Z,-8.33
2022-12-19T05:56:55.648Z,-8.36
2022-12-19T05:59:22.752Z,-8.43
2022-12-19T06:01:49.798Z,-8.46
2022-12-19T06:04:16.910Z,-8.43
2022-12-19T06:06:43.981Z,-8.38
2022-12-19T06:09:11.064Z,-8.45
2022-12-19T06:11:37.991Z,-8.41
2022-12-19T06:14:07.725Z,-8.42
2022-12-19T06:16:34.733Z,-8.42
2022-12-19T06:19:01.701Z,-8.42
2022-12-19T06:21:28.661Z,-8.40
2022-12-19T06:23:55.827Z,-8.34
2022-12-19T06:26:23.004Z,-8.26
2022-12-19T06:28:51.920Z,-8.24
2022-12-19T06:31:23.557Z,-8.23
2022-12-19T06:33:52.124Z,-8.16
2022-12-19T06:36:21.720Z,-8.20
2022-12-19T06:38:49.529Z,-8.19
2022-12-19T06:41:35.657Z,-8.17
2022-12-19T06:44:05.318Z,-8.12
2022-12-19T06:46:32.285Z,-8.08
2022-12-19T06:48:59.687Z,-8.10
2022-12-19T06:51:26.834Z,-8.09
2022-12-19T06:53:54.162Z,-8.00
2022-12-19T06:56:21.246Z,-7.93
2022-12-19T06:58:48.693Z,-7.87
2022-12-19T07:01:24.641Z,-7.84
2022-12-19T07:03:51.797Z,-7.74
2022-12-19T07:06:18.827Z,-7.59
2022-12-19T07:08:45.739Z,-7.51
2022-12-19T07:11:15.614Z,-7.48
2022-12-19T07:16:10.159Z,-7.35
2022-12-19T07:18:39.568Z,-7.32
2022-12-19T07:21:07.273Z,-7.32
2022-12-19T07:23:34.558Z,-7.34
2022-12-19T07:26:01.558Z,-7.31
2022-12-19T07:28:28.805Z,-7.33
2022-12-19T07:30:56.135Z,-7.31
2022-12-19T07:33:23.152Z,-7.32
2022-12-19T07:35:50.133Z,-7.28
2022-12-19T07:38:17.092Z,-7.26
2022-12-19T07:40:44.322Z,-7.22
2022-12-19T07:43:11.403Z,-7.01
2022-12-19T07:45:38.893Z,-6.93
2022-12-19T07:48:06.871Z,-6.82
2022-12-19T07:50:34.067Z,-6.73
2022-12-19T07:53:01.187Z,-6.67
2022-12-19T07:55:30.651Z,-6.53
2022-12-19T07:57:57.674Z,-6.39
2022-12-19T08:00:24.723Z,-6.36
2022-12-19T08:02:51.955Z,-6.28
2022-12-19T08:05:20.214Z,-6.19
2022-12-19T08:07:47.304Z,-6.12
2022-12-19T08:10:15.215Z,-6.04
2022-12-19T08:12:42.238Z,-5.94
2022-12-19T08:15:09.713Z,-5.89
2022-12-19T08:17:41.457Z,-5.88
2022-12-19T08:20:11.306Z,-5.84
2022-12-19T08:22:38.407Z,-5.83
2022-12-19T08:25:07.459Z,-5.73
2022-12-19T08:27:35.077Z,-5.81
2022-12-19T08:30:02.635Z,-5.74
2022-12-19T08:32:30.116Z,-5.61
2022-12-19T08:34:57.280Z,-5.66
2022-12-19T08:37:24.279Z,-5.68
2022-12-19T08:39:51.758Z,-5.62
2022-12-19T08:42:18.993Z,-5.57
2022-12-19T08:44:46.035Z,-5.55
2022-12-19T08:47:13.559Z,-5.36
2022-12-19T08:49:40.651Z,-5.37
2022-12-19T08:52:07.879Z,-5.26
2022-12-19T08:54:34.911Z,-5.25
2022-12-19T08:57:02.091Z,-5.29
2022-12-19T08:59:30.881Z,-5.31
2022-12-19T09:02:02.427Z,-5.22
2022-12-19T09:05:31.347Z,-5.23
2022-12-19T09:07:17.189Z,-5.21
2022-12-19T09:09:45.099Z,-5.18
2022-12-19T09:12:16.552Z,-5.16
2022-12-19T09:14:44.517Z,-5.09
2022-12-19T09:17:11.586Z,-5.03
2022-12-19T09:19:39.017Z,-4.96
2022-12-19T09:22:07.912Z,-4.96
2022-12-19T09:24:34.891Z,-4.93
2022-12-19T09:27:02.398Z,-4.95
2022-12-19T09:29:33.626Z,-4.93
2022-12-19T09:32:02.280Z,-4.93
2022-12-19T09:34:36.234Z,-4.94
2022-12-19T09:37:07.580Z,-4.93
2022-12-19T09:39:35.923Z,-4.85
2022-12-19T09:42:21.457Z,-4.94
2022-12-19T09:44:57.293Z,-4.93
2022-12-19T09:47:27.557Z,-4.93
2022-12-19T09:49:54.915Z,-4.89
2022-12-19T09:52:38.840Z,-4.86
2022-12-19T09:55:44.214Z,-4.82
2022-12-19T09:58:34.856Z,-4.79
2022-12-19T10:01:07.603Z,-4.77
2022-12-19T10:03:45.107Z,-4.83
2022-12-19T10:07:11.126Z,-4.79
2022-12-19T10:10:09.791Z,-4.63
2022-12-19T10:12:38.374Z,-4.67
2022-12-19T10:15:10.289Z,-4.72
2022-12-19T10:17:52.342Z,-4.73
2022-12-19T10:20:27.771Z,-4.68
2022-12-19T10:23:10.025Z,-4.57
2022-12-19T10:25:58.667Z,-4.58
2022-12-19T10:29:03.190Z,-4.54
2022-12-19T10:31:38.513Z,-4.58
2022-12-19T10:34:22.258Z,-4.53
2022-12-19T10:37:26.881Z,-4.50
2022-12-19T10:40:05.771Z,-4.44
2022-12-19T10:43:19.337Z,-4.37
2022-12-19T10:45:58.996Z,-4.50
2022-12-19T10:48:30.630Z,-4.42
2022-12-19T10:51:06.359Z,-4.39
2022-12-19T10:53:34.460Z,-4.31
2022-12-19T10:56:11.866Z,-4.21
2022-12-19T10:58:42.891Z,-4.10
2022-12-19T11:01:22.607Z,-4.11
2022-12-19T11:04:12.788Z,-4.10
2022-12-19T11:07:03.848Z,-4.01
2022-12-19T11:09:41.736Z,-4.11
2022-12-19T11:15:20.552Z,-4.03
2022-12-19T11:19:33.116Z,-4.01
2022-12-19T11:28:35.651Z,-3.92
2022-12-19T11:29:30.622Z,-3.91
2022-12-19T11:29:45.794Z,-3.79
2022-12-19T11:30:46.603Z,-3.74
2022-12-19T11:33:18.858Z,-3.77
2022-12-19T11:36:06.495Z,-3.72
2022-12-19T11:38:36.873Z,-3.66
2022-12-19T11:41:14.206Z,-3.61
2022-12-19T11:43:51.517Z,-3.61
2022-12-19T11:46:35.068Z,-3.62
2022-12-19T11:49:30.640Z,-3.56
2022-12-19T11:52:09.099Z,-3.54
2022-12-19T11:54:55.546Z,-3.52
2022-12-19T11:57:22.904Z,-3.38
2022-12-19T11:59:52.485Z,-3.39
2022-12-19T12:02:28.594Z,-3.38
2022-12-19T12:05:23.860Z,-3.33
2022-12-19T12:10:53.785Z,-3.31
2022-12-19T12:17:54.178Z,-3.29
2022-12-19T12:22:50.059Z,-3.21
2022-12-19T12:31:12.277Z,-3.14
2022-12-19T12:31:26.161Z,-3.14
2022-12-19T12:31:39.752Z,-3.16
2022-12-19T12:31:43.908Z,-3.10
2022-12-19T12:31:58.648Z,-3.09
2022-12-19T12:35:54.206Z,-3.06
2022-12-19T12:38:28.809Z,-3.04
2022-12-19T12:41:52.278Z,-2.98
2022-12-19T12:44:22.640Z,-2.95
2022-12-19T12:47:26.451Z,-2.92
2022-12-19T12:50:15.288Z,-2.93
2022-12-19T12:52:45.963Z,-2.94
2022-12-19T12:55:18.324Z,-2.93
2022-12-19T12:57:45.525Z,-2.88
2022-12-19T13:00:23.382Z,-2.80
2022-12-19T13:03:11.686Z,-2.91
2022-12-19T13:06:05.375Z,-2.86
2022-12-19T13:08:44.186Z,-2.88
2022-12-19T13:11:54.852Z,-2.80
2022-12-19T13:14:39.791Z,-2.85
2022-12-19T13:17:11.907Z,-2.85
2022-12-19T13:20:17.253Z,-2.81
2022-12-19T13:22:46.664Z,-2.80
2022-12-19T13:25:38.287Z,-2.79
2022-12-19T13:28:07.841Z,-2.77
2022-12-19T13:30:50.541Z,-2.73
2022-12-19T13:33:22.485Z,-2.74
2022-12-19T13:39:23.728Z,-2.72
2022-12-19T13:40:02.472Z,-2.71
2022-12-19T13:42:00.256Z,-2.71
2022-12-19T13:44:28.182Z,-2.75
2022-12-19T13:46:55.604Z,-2.69
2022-12-19T13:49:34.566Z,-2.70
2022-12-19T13:52:02.968Z,-2.67
2022-12-19T13:54:34.820Z,-2.63
2022-12-19T13:57:08.857Z,-2.59
2022-12-19T13:59:38.497Z,-2.59
2022-12-19T14:02:23.996Z,-2.65
2022-12-19T14:04:51.549Z,-2.57
2022-12-19T14:07:34.878Z,-2.58
2022-12-19T14:11:32.417Z,-2.53
2022-12-19T14:13:44.577Z,-2.52
2022-12-19T14:16:43.345Z,-2.49
2022-12-19T14:19:36.842Z,-2.51
2022-12-19T14:22:28.474Z,-2.47
2022-12-19T14:25:49.299Z,-2.48
2022-12-19T14:28:17.826Z,-2.47
2022-12-19T14:30:47.953Z,-2.44
2022-12-19T14:33:43.820Z,-2.43
2022-12-19T14:36:14.734Z,-2.41
2022-12-19T14:39:23.438Z,-2.39
2022-12-19T14:42:00.936Z,-2.40
2022-12-19T14:52:08.197Z,-2.36
2022-12-19T14:53:52.391Z,-2.38
2022-12-19T14:54:17.638Z,-2.39
2022-12-19T14:54:29.928Z,-2.39
2022-12-19T14:56:40.602Z,-2.36
2022-12-19T14:59:05.384Z,-2.36
2022-12-19T15:01:34.407Z,-2.38
2022-12-19T15:04:53.081Z,-2.34
2022-12-19T15:07:09.976Z,-2.31
2022-12-19T15:11:11.007Z,-2.30
2022-12-19T15:14:53.290Z,-2.34
2022-12-19T15:16:27.886Z,-2.26
2022-12-19T15:18:59.874Z,-2.25
2022-12-19T15:21:28.613Z,-2.23
2022-12-19T15:23:55.823Z,-2.26
2022-12-19T15:26:33.003Z,-2.27
2022-12-19T15:29:00.535Z,-2.24
2022-12-19T15:31:39.263Z,-2.24
2022-12-19T15:34:36.265Z,-2.23
2022-12-19T15:37:05.348Z,-2.19
2022-12-19T15:39:32.561Z,-2.16
2022-12-19T15:42:00.740Z,-2.15
2022-12-19T15:44:37.341Z,-2.09
2022-12-19T15:47:06.709Z,-2.08
2022-12-19T15:49:35.316Z,-2.10
2022-12-19T15:52:03.085Z,-2.09
2022-12-19T15:57:38.044Z,-2.05
2022-12-19T16:00:08.542Z,-2.05
2022-12-19T16:05:24.768Z,-2.05
2022-12-19T16:07:52.116Z,-2.02
2022-12-19T16:10:19.158Z,-2.01
2022-12-19T16:12:52.553Z,-1.98
2022-12-19T16:15:46.356Z,-1.96
2022-12-19T16:18:14.722Z,-1.93
2022-12-19T16:20:43.033Z,-1.94
2022-12-19T16:23:11.255Z,-1.95
2022-12-19T16:25:49.705Z,-1.90
2022-12-19T16:28:22.629Z,-1.89
2022-12-19T16:30:50.716Z,-1.87
2022-12-19T16:33:21.589Z,-1.89
2022-12-19T16:36:07.431Z,-1.86
2022-12-19T16:38:35.891Z,-1.81
2022-12-19T16:41:03.517Z,-1.80
2022-12-19T16:43:33.903Z,-1.82
2022-12-19T16:46:01.961Z,-1.78
2022-12-19T16:48:30.374Z,-1.79
2022-12-19T16:50:58.676Z,-1.78
2022-12-19T16:53:26.211Z,-1.80
2022-12-19T16:55:54.749Z,-1.82
2022-12-19T16:58:24.756Z,-1.81
2022-12-19T17:00:53.178Z,-1.78
2022-12-19T17:03:41.176Z,-1.77
2022-12-19T17:06:16.559Z,-1.77
2022-12-19T17:08:44.894Z,-1.76
2022-12-19T17:11:16.073Z,-1.78
2022-12-19T17:13:44.304Z,-1.72
2022-12-19T17:16:12.345Z,-1.68
2022-12-19T17:18:43.007Z,-1.71
2022-12-19T17:21:17.367Z,-1.71
2022-12-19T17:23:44.594Z,-1.67
2022-12-19T17:26:17.701Z,-1.66
2022-12-19T17:28:49.166Z,-1.65
2022-12-19T17:31:26.313Z,-1.68
2022-12-19T17:33:55.900Z,-1.65
2022-12-19T17:36:31.174Z,-1.61
2022-12-19T17:39:01.907Z,-1.61
2022-12-19T17:41:29.047Z,-1.59
2022-12-19T17:43:56.030Z,-1.59
2022-12-19T17:46:24.554Z,-1.60
2022-12-19T17:48:52.929Z,-1.57
2022-12-19T17:51:21.559Z,-1.58
2022-12-19T17:53:49.943Z,-1.58
2022-12-19T17:56:18.947Z,-1.57
2022-12-19T17:58:46.281Z,-1.59
2022-12-19T18:01:20.318Z,-1.60
2022-12-19T18:03:48.304Z,-1.58
2022-12-19T18:06:16.688Z,-1.57
2022-12-19T18:08:44.610Z,-1.56
2022-12-19T18:11:23.750Z,-1.52
2022-12-19T18:13:51.309Z,-1.55
2022-12-19T18:16:22.399Z,-1.59
2022-12-19T18:18:50.036Z,-1.58
2022-12-19T18:21:24.299Z,-1.62
2022-12-19T18:23:51.801Z,-1.61
2022-12-19T18:26:18.873Z,-1.60
2022-12-19T18:28:46.030Z,-1.60
2022-12-19T18:31:25.817Z,-1.58
2022-12-19T18:33:54.399Z,-1.58
2022-12-19T18:36:25.834Z,-1.65
2022-12-19T18:38:53.523Z,-1.61
2022-12-19T18:41:21.296Z,-1.63
2022-12-19T18:43:49.148Z,-1.56
2022-12-19T18:46:19.102Z,-1.59
2022-12-19T18:48:46.384Z,-1.63
2022-12-19T18:51:16.906Z,-1.66
2022-12-19T18:53:45.772Z,-1.63
2022-12-19T18:56:13.234Z,-1.67
2022-12-19T18:58:40.424Z,-1.57
2022-12-19T19:01:14.234Z,-1.60
2022-12-19T19:03:44.794Z,-1.59
2022-12-19T19:06:22.291Z,-1.59
2022-12-19T19:08:50.405Z,-1.56
2022-12-19T19:11:32.854Z,-1.58
2022-12-19T19:14:03.591Z,-1.61
2022-12-19T19:16:33.236Z,-1.61
2022-12-19T19:19:01.213Z,-1.58
2022-12-19T19:21:30.425Z,-1.60
2022-12-19T19:24:13.104Z,-1.55
2022-12-19T19:26:40.601Z,-1.55
2022-12-19T19:29:07.823Z,-1.56
2022-12-19T19:31:38.650Z,-1.53
2022-12-19T19:34:13.423Z,-1.48
2022-12-19T19:36:43.111Z,-1.49
2022-12-19T19:39:10.881Z,-1.49
2022-12-19T19:41:37.954Z,-1.51
2022-12-19T19:44:05.303Z,-1.49
2022-12-19T19:46:32.847Z,-1.46
2022-12-19T19:48:59.967Z,-1.41
2022-12-19T19:51:29.092Z,-1.45
2022-12-19T19:53:56.655Z,-1.41
2022-12-19T19:56:23.828Z,-1.40
2022-12-19T19:58:50.838Z,-1.39
2022-12-19T20:01:17.900Z,-1.39
2022-12-19T20:03:45.390Z,-1.37
2022-12-19T20:06:12.860Z,-1.36
2022-12-19T20:08:40.833Z,-1.35
2022-12-19T20:11:09.246Z,-1.33
2022-12-19T20:13:37.659Z,-1.27
2022-12-19T20:16:09.715Z,-1.26
2022-12-19T20:18:37.655Z,-1.27
2022-12-19T20:21:12.690Z,-1.28
2022-12-19T20:23:41.039Z,-1.27
2022-12-19T20:26:08.121Z,-1.26
2022-12-19T20:28:35.379Z,-1.28
2022-12-19T20:31:03.169Z,-1.24
2022-12-19T20:33:30.613Z,-1.20
2022-12-19T20:35:58.887Z,-1.21
2022-12-19T20:38:26.352Z,-1.17
2022-12-19T20:40:55.952Z,-1.18
2022-12-19T20:43:25.299Z,-1.14
2022-12-19T20:45:53.073Z,-1.13
2022-12-19T20:48:21.501Z,-1.11
2022-12-19T20:50:48.706Z,-1.07
2022-12-19T20:53:17.638Z,-1.04
2022-12-19T20:55:57.793Z,-1.04
2022-12-19T20:58:27.598Z,-1.00
2022-12-19T21:00:56.600Z,-0.96
2022-12-19T21:03:28.487Z,-0.91
2022-12-19T21:05:57.170Z,-0.89
2022-12-19T21:08:26.179Z,-0.83
2022-12-19T21:10:55.078Z,-0.84
2022-12-19T21:13:23.584Z,-0.75
2022-12-19T21:15:59.253Z,-0.71
2022-12-19T21:18:27.015Z,-0.71
2022-12-19T21:20:54.563Z,-0.66
2022-12-19T21:23:25.458Z,-0.61
2022-12-19T21:25:53.279Z,-0.58
2022-12-19T21:28:21.417Z,-0.51
2022-12-19T21:30:57.930Z,-0.49
2022-12-19T21:33:25.494Z,-0.41
2022-12-19T21:35:52.471Z,-0.35
2022-12-19T21:38:19.600Z,-0.33
2022-12-19T21:40:46.904Z,-0.30
2022-12-19T21:43:13.897Z,-0.25
2022-12-19T21:45:41.197Z,-0.20
2022-12-19T21:48:08.356Z,-0.17
2022-12-19T21:50:35.597Z,-0.13
2022-12-19T21:53:02.786Z,-0.11
2022-12-19T21:55:29.740Z,-0.04
2022-12-19T21:57:56.821Z,-0.01
2022-12-19T22:00:23.930Z,0.03
2022-12-19T22:03:12.711Z,0.09
2022-12-19T22:05:38.614Z,0.16
2022-12-19T22:08:05.761Z,0.19
2022-12-19T22:10:32.744Z,0.22
2022-12-19T22:12:59.710Z,0.25
2022-12-19T22:15:26.741Z,0.30
2022-12-19T22:17:53.894Z,0.34
2022-12-19T22:20:21.207Z,0.36
2022-12-19T22:22:48.078Z,0.41
2022-12-19T22:25:15.575Z,0.45
2022-12-19T22:27:42.576Z,0.53
2022-12-19T22:30:11.365Z,0.53
2022-12-19T22:32:38.596Z,0.58
2022-12-19T22:35:06.255Z,0.59
2022-12-19T22:37:33.346Z,0.60
2022-12-19T22:40:00.701Z,0.62
2022-12-19T22:42:28.029Z,0.64
2022-12-19T22:44:55.097Z,0.67
2022-12-19T22:47:22.025Z,0.69
2022-12-19T22:49:52.183Z,0.70
2022-12-19T22:52:19.575Z,0.70
2022-12-19T22:54:46.575Z,0.74
2022-12-19T22:57:13.447Z,0.75
2022-12-19T22:59:40.599Z,0.77
2022-12-19T23:02:07.830Z,0.81
2022-12-19T23:04:36.092Z,0.81
2022-12-19T23:07:03.064Z,0.85
2022-12-19T23:09:29.960Z,0.86
2022-12-19T23:11:56.921Z,0.89
2022-12-19T23:14:23.881Z,0.93
2022-12-19T23:16:51.237Z,0.93
2022-12-19T23:19:18.626Z,0.94
2022-12-19T23:21:46.035Z,0.97
2022-12-19T23:24:13.483Z,1.00
2022-12-19T23:26:40.834Z,0.99
2022-12-19T23:29:11.158Z,1.02
2022-12-19T23:31:43.081Z,1.06
2022-12-19T23:34:10.732Z,1.07
2022-12-19T23:39:25.150Z,1.13
2022-12-19T23:41:52.044Z,1.15
2022-12-19T23:44:19.139Z,1.17
2022-12-19T23:46:46.584Z,1.19
2022-12-19T23:49:13.534Z,1.21
2022-12-19T23:51:40.452Z,1.23
2022-12-19T23:54:08.863Z,1.25
2022-12-19T23:56:36.291Z,1.27
2022-12-19T23:59:03.483Z,1.29
